WetterOnline ( https://www.wetteronline.de )

Wetter aktuell Neuwied

Aktuelles Wetter: Andernach (75m)

6-stündlich | Neueste Meldungen
Ortszeit Temperatur Wetter
Di, 17.05. 14:00 23.3° C bedeckt
Di, 17.05. 8:00 13.9° C bedeckt
Di, 17.05. 2:00 13.2° C Nebel
Mo, 16.05. 20:00 18.6° C bedeckt
Mo, 16.05. 14:00 24.5° C bewölkt
Mo, 16.05. 8:00 15.0° C bedeckt
Mo, 16.05. 2:00 13.0° C wolkenlos
So, 15.05. 20:00 24.1° C leicht bewölkt
Ortszeit Temperatur Wetter
Di, 17.05. 19:00 24.6° C leicht bewölkt
Di, 17.05. 18:50 24.6° C wolkig
Di, 17.05. 18:40 25.3° C bewölkt
Di, 17.05. 18:30 25.7° C wolkig
Di, 17.05. 18:20 25.7° C wolkig
Di, 17.05. 18:10 25.3° C bewölkt
Di, 17.05. 18:00 26.0° C bewölkt
Di, 17.05. 17:30 25.6° C leicht bewölkt
Di, 17.05. 17:00 25.2° C wolkig
Di, 17.05. 16:30 24.7° C bedeckt
Di, 17.05. 16:00 25.1° C bewölkt
Ortszeit Relative Feuchte Sichtweite
Di, 17.05. 14:00 50% >70 km
Di, 17.05. 8:00 93% 12 km
Di, 17.05. 2:00 100% 100 m
Mo, 16.05. 20:00 91% 19 km
Mo, 16.05. 14:00 63% 35 km
Mo, 16.05. 8:00 78% 30 km
Mo, 16.05. 2:00 80% 45 km
So, 15.05. 20:00 36% 40 km
Ortszeit Relative Feuchte Sichtweite
Di, 17.05. 19:00 48% 45 km
Di, 17.05. 18:50 48% -
Di, 17.05. 18:40 47% -
Di, 17.05. 18:30 44% 50 km
Di, 17.05. 18:20 44% -
Di, 17.05. 18:10 46% -
Di, 17.05. 18:00 44% 50 km
Di, 17.05. 17:30 45% 60 km
Di, 17.05. 17:00 45% 45 km
Di, 17.05. 16:30 47% 45 km
Di, 17.05. 16:00 46% 60 km
Ortszeit Niederschlagsmenge Niederschlagsart
Di, 17.05. 14:00 0.0 l/m2 in 6 Std. -
Di, 17.05. 8:00 0.1 l/m2 in 12 Std. -
Di, 17.05. 2:00 0.1 l/m2 in 6 Std. -
Mo, 16.05. 20:00 12 l/m2 in 12 Std. Regen
Mo, 16.05. 14:00 2 l/m2 in 6 Std. Regen, Niederschlag
Mo, 16.05. 8:00 0.1 l/m2 in 12 Std. Regen
Mo, 16.05. 2:00 0.0 l/m2 in 6 Std. -
So, 15.05. 20:00 0.0 l/m2 in 12 Std. -
Ortszeit Niederschlagsmenge Niederschlagsart
Di, 17.05. 19:00 0.0 l/m2 in 1 Std. -
Di, 17.05. 18:50 keine Meldung -
Di, 17.05. 18:40 keine Meldung -
Di, 17.05. 18:30 0.0 l/m2 in 1 Std. -
Di, 17.05. 18:20 keine Meldung -
Di, 17.05. 18:10 keine Meldung -
Di, 17.05. 18:00 0.0 l/m2 in 1 Std. -
Di, 17.05. 17:30 0.0 l/m2 in 1 Std. -
Di, 17.05. 17:00 0.0 l/m2 in 1 Std. -
Di, 17.05. 16:30 0.0 l/m2 in 1 Std. -
Di, 17.05. 16:00 0.0 l/m2 in 1 Std. -
Ortszeit Stärke Spitze Richtung
km/h Bft. km/h Grad Sektor
Di, 17.05. 14:00 7 2 13 80° O
Di, 17.05. 8:00 0 0 11 - -
Di, 17.05. 2:00 4 1 7 170° S
Mo, 16.05. 20:00 4 1 47 160° S
Mo, 16.05. 14:00 7 2 36 60° NO
Mo, 16.05. 8:00 4 1 14 210° SW
Mo, 16.05. 2:00 7 2 18 190° S
So, 15.05. 20:00 13 3 28 90° O
Ortszeit Stärke Spitze Richtung
km/h Bft. km/h Grad Sektor
Di, 17.05. 19:00 9 2 19 100° O
Di, 17.05. 18:50 9 2 - 100° O
Di, 17.05. 18:40 11 2 - 120° SO
Di, 17.05. 18:30 9 2 19 100° O
Di, 17.05. 18:20 9 2 - 100° O
Di, 17.05. 18:10 9 2 - 70° O
Di, 17.05. 18:00 7 2 14 100° O
Di, 17.05. 17:30 7 2 14 100° O
Di, 17.05. 17:00 11 2 14 90° O
Di, 17.05. 16:30 7 2 11 70° O
Di, 17.05. 16:00 6 1 13 60° NO
Ortszeit Untergrenze Bedeckung Gattung
total tief tief mittel hoch
Di, 17.05. 14:00 3000 m 8/8 8/8 - - -
Di, 17.05. 8:00 150 m 8/8 8/8 - - -
Di, 17.05. 2:00 <30 m 8/8 0/8 - - -
Mo, 16.05. 20:00 3300 m 8/8 8/8 - - -
Mo, 16.05. 14:00 1500 m 7/8 7/8 - - -
Mo, 16.05. 8:00 3300 m 8/8 8/8 - - -
Mo, 16.05. 2:00 - 0/8 0/8 - - -
So, 15.05. 20:00 6900 m 3/8 3/8 - - -
Ortszeit Bedeckungsgrad in Achtel und Wolkenuntergrenze
Di, 17.05. 19:00 1(2400m) 7(10500m)
Di, 17.05. 18:50 1(2400m) 7(10500m)
Di, 17.05. 18:40 7
Di, 17.05. 18:30 2(2400m) 3(3600m) 7(10500m)
Di, 17.05. 18:20 2(2400m) 3(3600m) 7(10500m)
Di, 17.05. 18:10 7
Di, 17.05. 18:00 6(2700m) 6(3600m) 8(10500m)
Di, 17.05. 17:30 5(10500m) 5(12000m)
Di, 17.05. 17:00 3(3300m) 6(10500m) 7(10500m)
Di, 17.05. 16:30 8(3300m)
Di, 17.05. 16:00 7(3000m) 7(3600m)
Ortszeit Luftdruck NN (hPa) Tendenz (hPa in 3 Std.)
Di, 17.05. 14:00 1021 - 1,6
Di, 17.05. 8:00 1023 + 1,1
Di, 17.05. 2:00 1021 + 0,6
Mo, 16.05. 20:00 1019 + 0,8
Mo, 16.05. 14:00 1015 - 0,8
Mo, 16.05. 8:00 1015 + 0,2
Mo, 16.05. 2:00 1016 - 0,3
So, 15.05. 20:00 1015 - 1,5
Ortszeit Luftdruck NN (hPa) Tendenz (hPa in 3 Std.)
Di, 17.05. 19:00 1019 - 1,1
Di, 17.05. 18:50 1019 keine Meldung
Di, 17.05. 18:40 1019 keine Meldung
Di, 17.05. 18:30 1019 - 1,1
Di, 17.05. 18:20 1019 keine Meldung
Di, 17.05. 18:10 1019 keine Meldung
Di, 17.05. 18:00 1019 - 1,3
Di, 17.05. 17:30 1019 - 1,4
Di, 17.05. 17:00 1019 - 1,4
Di, 17.05. 16:30 1020 - 1,7
Di, 17.05. 16:00 1020 - 1,8
Ortszeit Schneehöhe (cm)
Di, 17.05. 14:00 0
Di, 17.05. 8:00 0
Di, 17.05. 2:00 0
Mo, 16.05. 20:00 0
Mo, 16.05. 14:00 0
Mo, 16.05. 8:00 0
Mo, 16.05. 2:00 0
So, 15.05. 20:00 0
Ortszeit Schneehöhe (cm)
Di, 17.05. 19:00 0
Di, 17.05. 18:50 0
Di, 17.05. 18:40 0
Di, 17.05. 18:30 0
Di, 17.05. 18:20 0
Di, 17.05. 18:10 0
Di, 17.05. 18:00 0
Di, 17.05. 17:30 0
Di, 17.05. 17:00 0
Di, 17.05. 16:30 0
Di, 17.05. 16:00 0
Link zu dieser Seite / Seite empfehlen

Das Wetter in ...